createdAt,value
2022-12-16T00:00:56.680Z,69.61
2022-12-16T00:01:56.638Z,70.25
2022-12-16T00:02:56.652Z,70.25
2022-12-16T00:03:56.546Z,70.21
2022-12-16T00:04:56.520Z,69.61
2022-12-16T00:05:56.512Z,69.82
2022-12-16T00:06:56.541Z,69.09
2022-12-16T00:07:56.510Z,69.71
2022-12-16T00:08:56.517Z,69.82
2022-12-16T00:09:56.484Z,69.61
2022-12-16T00:10:56.458Z,70.14
2022-12-16T00:11:56.472Z,70.03
2022-12-16T00:12:56.436Z,70.25
2022-12-16T00:13:56.441Z,70.32
2022-12-16T00:14:56.413Z,69.79
2022-12-16T00:15:56.521Z,69.16
2022-12-16T00:16:56.454Z,69.16
2022-12-16T00:17:56.386Z,69.37
2022-12-16T00:18:56.372Z,69.37
2022-12-16T00:19:56.371Z,69.37
2022-12-16T00:20:56.351Z,68.42
2022-12-16T00:21:56.402Z,68.66
2022-12-16T00:22:56.343Z,69.61
2022-12-16T00:23:56.320Z,69.06
2022-12-16T00:24:56.309Z,69.16
2022-12-16T00:25:56.330Z,68.87
2022-12-16T00:26:56.310Z,68.63
2022-12-16T00:28:00.482Z,68.52
2022-12-16T00:28:56.269Z,68.35
2022-12-16T00:29:56.257Z,69.29
2022-12-16T00:30:56.252Z,69.51
2022-12-16T00:31:56.290Z,69.82
2022-12-16T00:32:56.245Z,69.61
2022-12-16T00:33:56.220Z,69.93
2022-12-16T00:34:56.244Z,70.35
2022-12-16T00:35:56.196Z,70.21
2022-12-16T00:36:56.196Z,70.21
2022-12-16T00:37:56.195Z,70.21
2022-12-16T00:38:56.165Z,70.07
2022-12-16T00:39:56.152Z,70.18
2022-12-16T00:40:56.181Z,69.52
2022-12-16T00:41:56.153Z,69.73
2022-12-16T00:42:56.124Z,69.62
2022-12-16T00:43:56.119Z,69.10
2022-12-16T00:44:56.107Z,69.70
2022-12-16T00:45:56.136Z,68.85
2022-12-16T00:46:56.185Z,68.85
2022-12-16T00:47:56.067Z,69.03
2022-12-16T00:48:56.082Z,68.85
2022-12-16T00:49:56.065Z,68.93
2022-12-16T00:50:56.040Z,69.14
2022-12-16T00:51:56.068Z,69.49
2022-12-16T00:52:56.046Z,69.87
2022-12-16T00:53:56.006Z,69.14
2022-12-16T00:54:55.997Z,69.24
2022-12-16T00:55:56.030Z,69.10
2022-12-16T00:56:55.973Z,68.79
2022-12-16T00:57:55.965Z,68.79
2022-12-16T00:58:55.972Z,69.10
2022-12-16T00:59:55.947Z,69.21
2022-12-16T01:00:56.020Z,68.79
2022-12-16T01:01:56.204Z,68.58
2022-12-16T01:02:56.045Z,68.90
2022-12-16T01:03:55.994Z,68.58
2022-12-16T01:04:55.915Z,67.95
2022-12-16T01:05:55.881Z,69.14
2022-12-16T01:06:55.952Z,68.93
2022-12-16T01:07:55.869Z,69.77
2022-12-16T01:08:55.847Z,69.53
2022-12-16T01:09:55.835Z,69.64
2022-12-16T01:10:55.853Z,69.32
2022-12-16T01:11:55.836Z,69.32
2022-12-16T01:12:55.810Z,68.69
2022-12-16T01:13:55.822Z,69.21
2022-12-16T01:14:55.781Z,68.79
2022-12-16T01:15:55.774Z,68.69
2022-12-16T01:16:55.877Z,68.82
2022-12-16T01:17:55.805Z,68.51
2022-12-16T01:18:55.750Z,69.24
2022-12-16T01:19:55.744Z,69.35
2022-12-16T01:20:55.806Z,69.03
2022-12-16T01:21:55.711Z,70.12
2022-12-16T01:22:55.718Z,70.40
2022-12-16T01:23:55.735Z,70.33
2022-12-16T01:24:55.687Z,70.40
2022-12-16T01:25:55.666Z,70.43
2022-12-16T01:26:55.657Z,70.29
2022-12-16T01:27:55.651Z,70.51
2022-12-16T01:28:55.660Z,70.29
2022-12-16T01:29:55.686Z,70.06
2022-12-16T01:30:55.615Z,70.09
2022-12-16T01:31:55.711Z,69.53
2022-12-16T01:32:55.589Z,69.56
2022-12-16T01:33:55.632Z,69.67
2022-12-16T01:34:55.923Z,70.06
2022-12-16T01:35:56.315Z,69.53
2022-12-16T01:36:55.573Z,69.42
2022-12-16T01:37:55.541Z,69.64
2022-12-16T01:38:55.530Z,69.00
2022-12-16T01:39:55.518Z,68.79
2022-12-16T01:40:55.535Z,69.42
2022-12-16T01:41:55.597Z,68.69
2022-12-16T01:42:55.532Z,68.79
2022-12-16T01:43:55.473Z,68.90
2022-12-16T01:44:55.462Z,68.79
2022-12-16T01:45:55.532Z,69.21
2022-12-16T01:46:55.467Z,69.18
2022-12-16T01:47:55.485Z,68.69
2022-12-16T01:48:55.448Z,68.27
2022-12-16T01:49:55.410Z,68.48
2022-12-16T01:50:55.403Z,68.69
2022-12-16T01:51:55.604Z,68.69
2022-12-16T01:52:55.437Z,69.32
2022-12-16T01:53:55.576Z,68.48
2022-12-16T01:54:55.378Z,67.85
2022-12-16T01:55:55.357Z,67.63
2022-12-16T01:56:55.456Z,67.53
2022-12-16T01:57:55.330Z,68.05
2022-12-16T01:58:55.347Z,67.85
2022-12-16T01:59:55.371Z,67.74
2022-12-16T02:00:55.341Z,67.74
2022-12-16T02:01:55.502Z,68.30
2022-12-16T02:02:55.391Z,68.61
2022-12-16T02:03:55.304Z,68.40
2022-12-16T02:04:55.253Z,68.82
2022-12-16T02:05:55.316Z,68.61
2022-12-16T02:06:55.237Z,68.72
2022-12-16T02:07:55.255Z,69.00
2022-12-16T02:08:55.231Z,69.03
2022-12-16T02:09:55.242Z,69.03
2022-12-16T02:10:55.241Z,69.35
2022-12-16T02:11:55.211Z,68.79
2022-12-16T02:12:55.179Z,69.32
2022-12-16T02:13:55.157Z,68.90
2022-12-16T02:14:55.189Z,68.69
2022-12-16T02:15:55.145Z,68.48
2022-12-16T02:16:55.319Z,68.61
2022-12-16T02:17:55.141Z,68.93
2022-12-16T02:18:55.110Z,69.24
2022-12-16T02:19:55.095Z,69.45
2022-12-16T02:20:55.131Z,69.45
2022-12-16T02:21:55.112Z,69.67
2022-12-16T02:22:55.062Z,69.35
2022-12-16T02:23:55.145Z,69.59
2022-12-16T02:24:55.074Z,70.12
2022-12-16T02:25:55.033Z,70.43
2022-12-16T02:26:55.019Z,70.01
2022-12-16T02:27:55.248Z,69.80
2022-12-16T02:28:55.241Z,69.38
2022-12-16T02:29:55.087Z,69.17
2022-12-16T02:30:55.322Z,68.96
2022-12-16T02:31:55.058Z,69.41
2022-12-16T02:32:54.954Z,68.88
2022-12-16T02:33:54.957Z,69.59
2022-12-16T02:34:55.142Z,69.10
2022-12-16T02:35:54.987Z,69.20
2022-12-16T02:36:54.937Z,69.52
2022-12-16T02:37:54.906Z,69.52
2022-12-16T02:38:56.362Z,69.73
2022-12-16T02:39:54.901Z,69.59
2022-12-16T02:40:54.906Z,69.31
2022-12-16T02:41:54.870Z,68.36
2022-12-16T02:42:54.858Z,68.32
2022-12-16T02:43:54.916Z,68.52
2022-12-16T02:44:54.871Z,67.61
2022-12-16T02:45:54.875Z,67.93
2022-12-16T02:46:55.366Z,68.03
2022-12-16T02:47:54.805Z,68.38
2022-12-16T02:48:54.808Z,69.40
2022-12-16T02:49:54.803Z,68.48
2022-12-16T02:50:54.857Z,68.80
2022-12-16T02:51:54.782Z,68.70
2022-12-16T02:52:54.774Z,68.90
2022-12-16T02:53:54.742Z,69.22
2022-12-16T02:54:54.766Z,69.54
2022-12-16T02:55:54.711Z,69.43
2022-12-16T02:56:54.798Z,69.93
2022-12-16T02:57:54.696Z,69.85
2022-12-16T02:58:54.742Z,69.43
2022-12-16T02:59:54.676Z,69.32
2022-12-16T03:00:54.742Z,69.19
2022-12-16T03:01:54.797Z,69.19
2022-12-16T03:02:54.866Z,68.98
2022-12-16T03:03:54.656Z,69.09
2022-12-16T03:04:54.615Z,69.40
2022-12-16T03:05:54.619Z,69.82
2022-12-16T03:06:54.611Z,69.79
2022-12-16T03:07:54.621Z,69.09
2022-12-16T03:08:54.655Z,69.48
2022-12-16T03:09:54.572Z,69.68
2022-12-16T03:10:54.552Z,69.68
2022-12-16T03:11:54.548Z,69.61
2022-12-16T03:12:54.577Z,69.19
2022-12-16T03:13:54.525Z,68.98
2022-12-16T03:14:54.579Z,69.93
2022-12-16T03:15:54.511Z,69.51
2022-12-16T03:16:54.599Z,69.82
2022-12-16T03:17:54.506Z,69.71
2022-12-16T03:18:54.971Z,69.71
2022-12-16T03:19:54.459Z,69.61
2022-12-16T03:20:54.500Z,70.03
2022-12-16T03:21:54.474Z,69.71
2022-12-16T03:22:54.431Z,69.82
2022-12-16T03:23:54.426Z,70.03
2022-12-16T03:24:54.415Z,69.19
2022-12-16T03:25:54.438Z,69.61
2022-12-16T03:26:54.388Z,70.21
2022-12-16T03:27:54.437Z,69.26
2022-12-16T03:28:54.378Z,70.10
2022-12-16T03:29:54.358Z,70.42
2022-12-16T03:30:54.414Z,70.74
2022-12-16T03:31:54.363Z,70.53
2022-12-16T03:32:54.346Z,70.53
2022-12-16T03:33:54.360Z,70.84
2022-12-16T03:34:54.308Z,70.84
2022-12-16T03:35:54.303Z,71.19
2022-12-16T03:36:54.279Z,71.61
2022-12-16T03:37:54.302Z,71.37
2022-12-16T03:38:54.287Z,71.58
2022-12-16T03:39:54.364Z,71.66
2022-12-16T03:40:54.236Z,71.58
2022-12-16T03:41:54.236Z,71.48
2022-12-16T03:42:54.217Z,71.48
2022-12-16T03:43:54.205Z,71.76
2022-12-16T03:44:54.311Z,71.55
2022-12-16T03:45:54.367Z,71.37
2022-12-16T03:46:54.177Z,71.16
2022-12-16T03:47:54.181Z,71.37
2022-12-16T03:48:54.173Z,71.80
2022-12-16T03:49:54.141Z,71.80
2022-12-16T03:50:54.165Z,71.80
2022-12-16T03:51:54.195Z,71.69
2022-12-16T03:52:54.116Z,72.67
2022-12-16T03:53:54.122Z,72.42
2022-12-16T03:54:54.091Z,72.22
2022-12-16T03:55:54.118Z,72.32
2022-12-16T03:56:54.103Z,72.53
2022-12-16T03:57:54.085Z,72.32
2022-12-16T03:58:54.055Z,72.53
2022-12-16T03:59:54.145Z,72.42
2022-12-16T04:00:54.082Z,72.29
2022-12-16T04:01:54.154Z,72.29
2022-12-16T04:02:54.221Z,71.87
2022-12-16T04:03:54.081Z,71.83
2022-12-16T04:04:54.022Z,71.62
2022-12-16T04:05:54.041Z,71.73
2022-12-16T04:06:53.992Z,71.73
2022-12-16T04:07:58.818Z,71.52
2022-12-16T04:08:53.950Z,71.52
2022-12-16T04:09:53.942Z,71.31
2022-12-16T04:10:53.921Z,70.96
2022-12-16T04:11:53.976Z,70.86
2022-12-16T04:12:53.927Z,70.99
2022-12-16T04:13:53.922Z,71.10
2022-12-16T04:14:53.892Z,71.52
2022-12-16T04:15:53.938Z,71.31
2022-12-16T04:16:53.876Z,71.52
2022-12-16T04:17:53.895Z,71.41
2022-12-16T04:18:53.919Z,71.41
2022-12-16T04:19:55.117Z,71.31
2022-12-16T04:20:55.049Z,70.96
2022-12-16T04:21:53.830Z,71.17
2022-12-16T04:22:53.834Z,70.86
2022-12-16T04:23:53.803Z,70.75
2022-12-16T04:24:53.788Z,70.96
2022-12-16T04:25:53.782Z,70.86
2022-12-16T04:26:53.758Z,70.64
2022-12-16T04:27:53.776Z,70.01
2022-12-16T04:28:53.734Z,69.80
2022-12-16T04:29:53.745Z,70.12
2022-12-16T04:30:53.770Z,70.12
2022-12-16T04:31:53.733Z,70.64
2022-12-16T04:32:53.717Z,70.43
2022-12-16T04:33:53.691Z,70.54
2022-12-16T04:34:53.672Z,70.67
2022-12-16T04:35:53.693Z,70.86
2022-12-16T04:36:53.675Z,70.78
2022-12-16T04:37:53.678Z,70.33
2022-12-16T04:38:53.632Z,70.43
2022-12-16T04:39:53.626Z,70.43
2022-12-16T04:40:53.643Z,70.57
2022-12-16T04:41:53.635Z,71.10
2022-12-16T04:42:53.586Z,70.86
2022-12-16T04:43:53.576Z,70.64
2022-12-16T04:44:53.641Z,70.61
2022-12-16T04:45:53.676Z,70.40
2022-12-16T04:46:53.713Z,70.22
2022-12-16T04:47:57.345Z,70.22
2022-12-16T04:48:53.569Z,70.01
2022-12-16T04:49:53.514Z,69.62
2022-12-16T04:50:54.045Z,69.49
2022-12-16T04:51:53.502Z,69.83
2022-12-16T04:52:53.484Z,69.94
2022-12-16T04:53:53.489Z,69.52
2022-12-16T04:54:53.460Z,69.73
2022-12-16T04:55:53.452Z,68.99
2022-12-16T04:56:53.491Z,69.23
2022-12-16T04:57:53.438Z,70.07
2022-12-16T04:58:53.417Z,70.21
2022-12-16T04:59:53.419Z,69.29
2022-12-16T05:00:53.396Z,69.40
2022-12-16T05:01:53.607Z,70.77
2022-12-16T05:02:53.468Z,71.19
2022-12-16T05:03:53.477Z,70.88
2022-12-16T05:04:53.370Z,70.45
2022-12-16T05:05:53.353Z,70.49
2022-12-16T05:06:53.337Z,70.38
2022-12-16T05:07:53.328Z,70.25
2022-12-16T05:08:53.392Z,70.59
2022-12-16T05:09:53.320Z,70.59
2022-12-16T05:10:53.318Z,70.14
2022-12-16T05:11:53.293Z,70.03
2022-12-16T05:12:53.270Z,69.22
2022-12-16T05:13:53.292Z,70.28
2022-12-16T05:14:53.279Z,71.01
2022-12-16T05:15:53.380Z,71.12
2022-12-16T05:16:53.231Z,70.77
2022-12-16T05:17:53.228Z,70.67
2022-12-16T05:18:53.224Z,70.49
2022-12-16T05:19:53.231Z,70.56
2022-12-16T05:20:53.269Z,70.67
2022-12-16T05:21:53.194Z,70.25
2022-12-16T05:22:53.166Z,70.17
2022-12-16T05:23:53.182Z,70.38
2022-12-16T05:24:53.376Z,70.59
2022-12-16T05:25:53.180Z,71.12
2022-12-16T05:26:53.155Z,71.61
2022-12-16T05:27:53.131Z,70.98
2022-12-16T05:28:53.111Z,71.12
2022-12-16T05:29:53.102Z,71.09
2022-12-16T05:30:53.190Z,71.72
2022-12-16T05:31:53.110Z,71.61
2022-12-16T05:32:53.116Z,71.58
2022-12-16T05:33:53.062Z,71.48
2022-12-16T05:34:53.040Z,71.16
2022-12-16T05:35:53.039Z,70.10
2022-12-16T05:36:53.077Z,69.48
2022-12-16T05:37:53.013Z,69.51
2022-12-16T05:38:53.002Z,70.25
2022-12-16T05:39:53.050Z,71.30
2022-12-16T05:40:53.017Z,71.72
2022-12-16T05:41:52.975Z,71.61
2022-12-16T05:42:52.969Z,71.37
2022-12-16T05:43:52.978Z,71.58
2022-12-16T05:44:52.969Z,71.58
2022-12-16T05:45:53.041Z,71.45
2022-12-16T05:46:53.085Z,70.84
2022-12-16T05:47:52.912Z,70.95
2022-12-16T05:48:52.898Z,71.23
2022-12-16T05:49:52.920Z,71.10
2022-12-16T05:50:52.876Z,71.03
2022-12-16T05:51:52.898Z,70.99
2022-12-16T05:52:52.872Z,70.67
2022-12-16T05:53:52.850Z,70.89
2022-12-16T05:54:52.856Z,70.89
2022-12-16T05:55:52.852Z,70.89
2022-12-16T05:56:52.812Z,70.78
2022-12-16T05:57:52.871Z,70.25
2022-12-16T05:58:52.826Z,70.57
2022-12-16T05:59:52.787Z,70.04
2022-12-16T06:00:52.767Z,70.12
2022-12-16T06:01:52.970Z,70.01
2022-12-16T06:02:52.916Z,70.12
2022-12-16T06:03:52.840Z,70.01
2022-12-16T06:04:52.762Z,70.12
2022-12-16T06:05:52.724Z,70.12
2022-12-16T06:06:52.703Z,69.70
2022-12-16T06:07:52.725Z,69.59
2022-12-16T06:08:52.746Z,70.22
2022-12-16T06:09:56.676Z,70.01
2022-12-16T06:10:52.661Z,70.12
2022-12-16T06:11:52.680Z,69.07
2022-12-16T06:12:52.680Z,69.49
2022-12-16T06:13:52.630Z,69.17
2022-12-16T06:14:52.620Z,69.17
2022-12-16T06:15:52.699Z,69.38
2022-12-16T06:16:52.663Z,69.07
2022-12-16T06:17:52.598Z,68.78
2022-12-16T06:18:52.605Z,69.38
2022-12-16T06:19:52.571Z,69.70
2022-12-16T06:20:52.560Z,69.49
2022-12-16T06:21:52.616Z,69.38
2022-12-16T06:22:52.534Z,70.25
2022-12-16T06:23:52.535Z,70.25
2022-12-16T06:24:52.564Z,70.25
2022-12-16T06:25:52.509Z,70.22
2022-12-16T06:26:52.528Z,69.73
2022-12-16T06:27:52.493Z,68.99
2022-12-16T06:28:52.508Z,70.29
2022-12-16T06:29:52.504Z,70.50
2022-12-16T06:30:52.453Z,70.29
2022-12-16T06:31:52.475Z,70.60
2022-12-16T06:32:52.435Z,70.47
2022-12-16T06:33:55.004Z,70.78
2022-12-16T06:34:52.451Z,70.36
2022-12-16T06:35:52.435Z,70.04
2022-12-16T06:36:52.388Z,70.36
2022-12-16T06:37:52.380Z,70.50
2022-12-16T06:38:52.459Z,70.92
2022-12-16T06:39:53.181Z,70.18
2022-12-16T06:40:52.483Z,70.29
2022-12-16T06:41:52.345Z,69.48
2022-12-16T06:42:52.356Z,70.84
2022-12-16T06:43:52.358Z,70.88
2022-12-16T06:44:52.363Z,71.09
2022-12-16T06:45:52.376Z,71.41
2022-12-16T06:46:52.287Z,70.98
2022-12-16T06:47:52.283Z,70.98
2022-12-16T06:48:52.263Z,71.33
2022-12-16T06:49:52.285Z,71.09
2022-12-16T06:50:55.776Z,71.19
2022-12-16T06:51:52.259Z,70.67
2022-12-16T06:52:52.220Z,70.56
2022-12-16T06:53:52.220Z,69.82
2022-12-16T06:54:52.214Z,68.98
2022-12-16T06:55:52.190Z,69.12
2022-12-16T06:56:52.259Z,69.12
2022-12-16T06:57:52.180Z,69.15
2022-12-16T06:58:52.157Z,69.78
2022-12-16T06:59:52.175Z,70.28
2022-12-16T07:00:52.205Z,71.01
2022-12-16T07:01:52.225Z,70.49
2022-12-16T07:02:52.263Z,70.20
2022-12-16T07:03:52.119Z,70.31
2022-12-16T07:04:52.134Z,70.10
2022-12-16T07:05:52.105Z,69.67
2022-12-16T07:06:52.075Z,70.42
2022-12-16T07:07:52.458Z,70.13
2022-12-16T07:08:52.106Z,69.81
2022-12-16T07:09:52.060Z,70.34
2022-12-16T07:10:52.069Z,70.55
2022-12-16T07:11:52.050Z,71.43
2022-12-16T07:12:52.026Z,71.64
2022-12-16T07:13:52.002Z,72.38
2022-12-16T07:14:52.054Z,72.34
2022-12-16T07:15:51.990Z,72.34
2022-12-16T07:16:52.057Z,72.03
2022-12-16T07:17:51.977Z,71.50
2022-12-16T07:18:51.947Z,71.92
2022-12-16T07:19:51.955Z,71.61
2022-12-16T07:20:51.999Z,71.29
2022-12-16T07:21:51.933Z,71.71
2022-12-16T07:23:01.031Z,71.50
2022-12-16T07:23:51.904Z,71.61
2022-12-16T07:24:51.882Z,71.61
2022-12-16T07:25:51.908Z,71.71
2022-12-16T07:26:51.898Z,71.29
2022-12-16T07:27:51.875Z,71.71
2022-12-16T07:28:51.863Z,71.39
2022-12-16T07:29:51.841Z,71.08
2022-12-16T07:30:51.839Z,70.97
2022-12-16T07:31:51.882Z,70.76
2022-12-16T07:32:51.849Z,70.55
2022-12-16T07:33:51.789Z,70.45
2022-12-16T07:34:51.776Z,69.92
2022-12-16T07:35:51.795Z,69.60
2022-12-16T07:36:51.762Z,69.84
2022-12-16T07:37:51.756Z,69.74
2022-12-16T07:38:51.767Z,70.40
2022-12-16T07:39:55.101Z,70.72
2022-12-16T07:40:51.756Z,70.48
2022-12-16T07:41:51.721Z,70.37
2022-12-16T07:42:51.697Z,70.48
2022-12-16T07:43:51.684Z,70.30
2022-12-16T07:44:51.755Z,70.51
2022-12-16T07:45:51.758Z,70.51
2022-12-16T07:46:51.652Z,70.30
2022-12-16T07:47:51.646Z,70.61
2022-12-16T07:48:51.629Z,70.90
2022-12-16T07:49:51.656Z,70.40
2022-12-16T07:50:51.672Z,70.19
2022-12-16T07:51:51.687Z,70.26
2022-12-16T07:52:51.587Z,70.26
2022-12-16T07:53:51.579Z,69.84
2022-12-16T07:54:51.567Z,69.95
2022-12-16T07:55:51.554Z,69.98
2022-12-16T07:56:51.571Z,70.37
2022-12-16T07:57:51.534Z,70.51
2022-12-16T07:58:51.541Z,70.16
2022-12-16T07:59:51.520Z,69.53
2022-12-16T08:00:51.675Z,69.63
2022-12-16T08:01:51.690Z,69.21
2022-12-16T08:02:51.729Z,69.10
2022-12-16T08:03:51.537Z,69.92
2022-12-16T08:04:51.502Z,69.92
2022-12-16T08:05:51.455Z,69.07
2022-12-16T08:06:51.480Z,68.86
2022-12-16T08:07:51.429Z,67.99
2022-12-16T08:08:51.416Z,68.33
2022-12-16T08:09:51.408Z,68.54
2022-12-16T08:10:51.425Z,68.33
2022-12-16T08:11:51.448Z,68.54
2022-12-16T08:12:51.405Z,67.60
2022-12-16T08:13:51.404Z,67.60
2022-12-16T08:14:51.354Z,68.57
2022-12-16T08:15:51.348Z,68.68
2022-12-16T08:16:51.439Z,69.63
2022-12-16T08:17:51.394Z,69.32
2022-12-16T08:18:51.311Z,69.28
2022-12-16T08:19:51.310Z,69.10
2022-12-16T08:20:51.290Z,69.00
2022-12-16T08:21:51.280Z,69.53
2022-12-16T08:22:51.276Z,69.32
2022-12-16T08:23:51.279Z,69.42
2022-12-16T08:24:53.698Z,69.53
2022-12-16T08:25:51.282Z,69.63
2022-12-16T08:26:51.226Z,69.18
2022-12-16T08:27:51.217Z,69.18
2022-12-16T08:28:51.206Z,69.63
2022-12-16T08:29:51.236Z,69.32
2022-12-16T08:30:51.238Z,69.32
2022-12-16T08:31:51.314Z,69.81
2022-12-16T08:32:55.707Z,69.60
2022-12-16T08:33:52.161Z,70.03
2022-12-16T08:34:51.189Z,70.23
2022-12-16T08:35:51.137Z,70.65
2022-12-16T08:36:51.150Z,70.73
2022-12-16T08:37:51.111Z,70.87
2022-12-16T08:38:51.170Z,71.19
2022-12-16T08:40:10.673Z,71.39
2022-12-16T08:40:51.117Z,71.19
2022-12-16T08:41:51.077Z,71.08
2022-12-16T08:42:51.059Z,70.13
2022-12-16T08:43:51.066Z,70.37
2022-12-16T08:44:51.050Z,70.79
2022-12-16T08:45:51.116Z,71.01
2022-12-16T08:46:51.022Z,71.11
2022-12-16T08:47:51.011Z,71.11
2022-12-16T08:48:51.012Z,70.97
2022-12-16T08:49:52.553Z,70.76
2022-12-16T08:50:50.981Z,70.76
2022-12-16T08:51:50.964Z,70.55
2022-12-16T08:52:50.988Z,70.23
2022-12-16T08:53:50.958Z,70.31
2022-12-16T08:54:50.934Z,70.52
2022-12-16T08:55:50.923Z,70.31
2022-12-16T08:56:50.937Z,69.99
2022-12-16T08:57:50.930Z,69.57
2022-12-16T08:58:50.928Z,69.67
2022-12-16T08:59:50.889Z,69.99
2022-12-16T09:00:50.869Z,69.43
2022-12-16T09:01:51.137Z,69.46
2022-12-16T09:02:51.219Z,70.10
2022-12-16T09:03:50.939Z,70.52
2022-12-16T09:04:50.985Z,70.28
2022-12-16T09:05:50.956Z,69.78
2022-12-16T09:06:50.806Z,69.78
2022-12-16T09:07:50.801Z,69.89
2022-12-16T09:08:50.813Z,70.31
2022-12-16T09:09:50.772Z,69.67
2022-12-16T09:10:50.937Z,69.89
2022-12-16T09:11:50.772Z,70.31
2022-12-16T09:12:50.784Z,70.20
2022-12-16T09:13:50.737Z,70.20
2022-12-16T09:14:50.729Z,70.52
2022-12-16T09:15:50.780Z,70.52
2022-12-16T09:16:50.711Z,71.01
2022-12-16T09:17:50.800Z,71.33
2022-12-16T09:18:50.703Z,70.98
2022-12-16T09:19:50.692Z,70.25
2022-12-16T09:20:50.722Z,70.25
2022-12-16T09:21:50.650Z,70.14
2022-12-16T09:22:50.641Z,69.09
2022-12-16T09:23:50.712Z,68.95
2022-12-16T09:24:50.656Z,69.40
2022-12-16T09:25:50.618Z,69.51
2022-12-16T09:26:50.673Z,69.37
2022-12-16T09:27:50.629Z,68.87
2022-12-16T09:28:50.587Z,69.09
2022-12-16T09:29:50.578Z,69.29
2022-12-16T09:30:50.606Z,69.40
2022-12-16T09:31:50.545Z,69.82
2022-12-16T09:32:50.536Z,69.79
2022-12-16T09:33:50.530Z,69.79
2022-12-16T09:34:50.524Z,70.10
2022-12-16T09:35:50.531Z,70.07
2022-12-16T09:36:50.515Z,70.07
2022-12-16T09:37:50.501Z,69.02
2022-12-16T09:38:50.537Z,69.87
2022-12-16T09:39:50.461Z,69.41
2022-12-16T09:40:50.590Z,69.31
2022-12-16T09:41:50.467Z,69.52
2022-12-16T09:42:50.429Z,69.41
2022-12-16T09:43:50.476Z,68.43
2022-12-16T09:44:50.410Z,68.85
2022-12-16T09:45:50.436Z,68.85
2022-12-16T09:46:50.540Z,68.75
2022-12-16T09:47:50.506Z,68.23
2022-12-16T09:48:50.371Z,67.88
2022-12-16T09:49:50.356Z,68.82
2022-12-16T09:50:50.384Z,68.27
2022-12-16T09:51:50.361Z,68.40
2022-12-16T09:52:50.359Z,68.19
2022-12-16T09:53:50.338Z,68.19
2022-12-16T09:54:50.307Z,68.08
2022-12-16T09:55:50.288Z,68.72
2022-12-16T09:56:50.303Z,68.75
2022-12-16T09:57:51.628Z,68.51
2022-12-16T09:58:50.274Z,68.61
2022-12-16T09:59:50.312Z,68.69
2022-12-16T10:00:50.237Z,68.16
2022-12-16T10:01:50.487Z,68.16
2022-12-16T10:02:50.516Z,68.51
2022-12-16T10:03:51.266Z,68.27
2022-12-16T10:04:50.234Z,68.27
2022-12-16T10:05:50.194Z,68.27
2022-12-16T10:06:50.213Z,68.44
2022-12-16T10:07:50.180Z,67.50
2022-12-16T10:08:50.238Z,67.89
2022-12-16T10:09:50.144Z,67.47
2022-12-16T10:10:50.256Z,67.05
2022-12-16T10:11:50.160Z,67.15
2022-12-16T10:12:50.112Z,67.68
2022-12-16T10:13:50.129Z,67.47
2022-12-16T10:14:50.092Z,67.89
2022-12-16T10:15:50.185Z,66.94
2022-12-16T10:16:50.075Z,67.63
2022-12-16T10:17:50.079Z,68.24
2022-12-16T10:18:50.149Z,67.92
2022-12-16T10:19:50.065Z,67.82
2022-12-16T10:20:50.029Z,68.24
2022-12-16T10:21:50.019Z,67.68
2022-12-16T10:22:50.015Z,68.31
2022-12-16T10:23:50.004Z,67.57
2022-12-16T10:24:50.056Z,67.68
2022-12-16T10:25:49.990Z,67.79
2022-12-16T10:26:49.989Z,67.36
2022-12-16T10:27:49.955Z,66.55
2022-12-16T10:28:50.015Z,67.36
2022-12-16T10:29:49.940Z,67.40
2022-12-16T10:30:49.959Z,67.60
2022-12-16T10:31:50.077Z,68.31
2022-12-16T10:32:49.910Z,68.20
2022-12-16T10:33:49.889Z,67.99
2022-12-16T10:34:49.885Z,67.47
2022-12-16T10:35:49.900Z,67.79
2022-12-16T10:36:49.870Z,68.34
2022-12-16T10:37:49.850Z,67.60
2022-12-16T10:38:49.844Z,68.55
2022-12-16T10:39:49.827Z,68.34
2022-12-16T10:40:49.844Z,68.41
2022-12-16T10:41:49.837Z,67.99
2022-12-16T10:42:49.816Z,67.65
2022-12-16T10:43:49.841Z,67.86
2022-12-16T10:44:49.951Z,67.65
2022-12-16T10:45:49.764Z,67.44
2022-12-16T10:46:49.785Z,67.33
2022-12-16T10:47:49.783Z,67.76
2022-12-16T10:48:54.949Z,67.51
2022-12-16T10:49:54.614Z,67.54
2022-12-16T10:50:49.838Z,67.51
2022-12-16T10:51:49.700Z,67.41
2022-12-16T10:52:49.695Z,67.48
2022-12-16T10:53:49.700Z,66.53
2022-12-16T10:54:49.671Z,67.48
2022-12-16T10:55:49.671Z,66.75
2022-12-16T10:56:49.741Z,66.53
2022-12-16T10:57:49.671Z,66.53
2022-12-16T10:58:49.633Z,68.11
2022-12-16T10:59:49.643Z,68.01
2022-12-16T11:00:49.626Z,67.17
2022-12-16T11:01:49.681Z,67.38
2022-12-16T11:02:49.954Z,66.96
2022-12-16T11:03:49.667Z,66.64
2022-12-16T11:04:49.616Z,67.55
2022-12-16T11:05:49.568Z,67.45
2022-12-16T11:06:49.574Z,66.93
2022-12-16T11:07:49.529Z,66.96
2022-12-16T11:08:49.536Z,66.64
2022-12-16T11:09:49.555Z,67.06
2022-12-16T11:10:49.539Z,67.69
2022-12-16T11:11:49.504Z,67.72
2022-12-16T11:12:49.496Z,67.69
2022-12-16T11:13:49.482Z,67.69
2022-12-16T11:15:12.670Z,67.48
2022-12-16T11:15:50.542Z,67.58
2022-12-16T11:16:49.525Z,68.21
2022-12-16T11:17:49.444Z,67.58
2022-12-16T11:18:49.460Z,68.11
2022-12-16T11:19:49.402Z,67.80
2022-12-16T11:20:49.411Z,67.48
2022-12-16T11:21:49.490Z,68.32
2022-12-16T11:22:49.387Z,67.27
2022-12-16T11:23:49.371Z,67.90
2022-12-16T11:24:49.349Z,67.80
2022-12-16T11:25:49.359Z,68.11
2022-12-16T11:26:49.348Z,67.80
2022-12-16T11:27:49.351Z,67.58
2022-12-16T11:28:49.411Z,68.11
2022-12-16T11:29:49.296Z,67.80
2022-12-16T11:30:49.329Z,68.43
2022-12-16T11:31:49.294Z,68.63
2022-12-16T11:32:49.366Z,68.43
2022-12-16T11:33:49.288Z,67.83
2022-12-16T11:34:49.253Z,68.66
2022-12-16T11:35:49.231Z,68.80
2022-12-16T11:36:49.221Z,68.56
2022-12-16T11:37:49.313Z,69.51
2022-12-16T11:38:49.214Z,69.61
2022-12-16T11:39:49.190Z,69.85
2022-12-16T11:40:49.194Z,70.24
2022-12-16T11:41:49.227Z,69.82
2022-12-16T11:42:49.159Z,69.79
2022-12-16T11:43:49.172Z,69.37
2022-12-16T11:44:49.196Z,69.48
2022-12-16T11:45:49.125Z,69.16
2022-12-16T11:46:49.186Z,68.60
2022-12-16T11:47:49.198Z,68.29
2022-12-16T11:48:49.110Z,68.60
2022-12-16T11:49:49.082Z,68.60
2022-12-16T11:50:49.104Z,68.37
2022-12-16T11:51:49.061Z,67.97
2022-12-16T11:52:49.084Z,67.97
2022-12-16T11:53:49.103Z,67.74
2022-12-16T11:54:49.030Z,67.84
2022-12-16T11:56:05.957Z,67.74
2022-12-16T11:56:50.074Z,67.84
2022-12-16T11:57:49.039Z,67.52
2022-12-16T11:58:49.001Z,68.05
2022-12-16T11:59:49.002Z,67.32
2022-12-16T12:00:49.008Z,67.39
2022-12-16T12:01:49.015Z,67.63
2022-12-16T12:02:48.989Z,67.18
2022-12-16T12:03:49.108Z,66.86
2022-12-16T12:04:48.951Z,66.86
2022-12-16T12:05:48.948Z,66.76
2022-12-16T12:06:48.919Z,66.76
2022-12-16T12:07:48.953Z,66.97
2022-12-16T12:08:48.883Z,67.15
2022-12-16T12:09:48.889Z,67.05
2022-12-16T12:10:48.870Z,67.25
2022-12-16T12:11:48.871Z,66.39
2022-12-16T12:12:48.942Z,67.15
2022-12-16T12:13:48.826Z,66.94
2022-12-16T12:14:48.826Z,66.94
2022-12-16T12:15:48.852Z,66.42
2022-12-16T12:16:48.869Z,66.31
2022-12-16T12:17:48.784Z,67.15
2022-12-16T12:18:48.793Z,67.15
2022-12-16T12:19:48.781Z,66.83
2022-12-16T12:20:48.750Z,67.25
2022-12-16T12:21:48.780Z,67.18
2022-12-16T12:22:48.738Z,67.81
2022-12-16T12:23:48.717Z,67.39
2022-12-16T12:24:52.407Z,68.33
2022-12-16T12:25:48.735Z,67.25
2022-12-16T12:26:48.690Z,67.46
2022-12-16T12:27:48.693Z,67.36
2022-12-16T12:28:48.689Z,67.25
2022-12-16T12:29:48.654Z,67.57
2022-12-16T12:30:48.668Z,67.43
2022-12-16T12:31:48.809Z,67.22
2022-12-16T12:32:48.722Z,66.49
2022-12-16T12:33:48.616Z,67.85
2022-12-16T12:34:48.610Z,66.60
2022-12-16T12:35:48.592Z,66.49
2022-12-16T12:36:48.577Z,66.91
2022-12-16T12:37:48.743Z,66.91
2022-12-16T12:38:48.619Z,67.36
2022-12-16T12:39:48.555Z,67.64
2022-12-16T12:40:48.560Z,67.22
2022-12-16T12:41:48.523Z,66.42
2022-12-16T12:42:49.783Z,67.05
2022-12-16T12:43:48.514Z,67.64
2022-12-16T12:44:49.340Z,67.64
2022-12-16T12:45:48.517Z,67.02
2022-12-16T12:46:48.564Z,66.70
2022-12-16T12:47:48.462Z,66.56
2022-12-16T12:48:51.779Z,66.56
2022-12-16T12:49:48.454Z,66.46
2022-12-16T12:50:48.467Z,66.99
2022-12-16T12:51:48.418Z,66.36
2022-12-16T12:52:48.420Z,66.36